Smith Valley, Nevada Weather observations

Data are for 10 minute period ending at time listed.
 Day   Time   Solar   Ave.   Ave.  Ave.  Vector  Max.   Baro.   Total    
  of    of     Rad.   Air    Rel.  Wind   Wind   Wind  Press.  Precip.   
Year   Day            Temp.  Hum.  Speed  Dir.   Gust                    
2026   (PST)  Kw/m2    F      %     mph   deg.    mph    mb.     in.     
-------------------------------------------------------------------------
 124    1:50   0.00   43.3    83    4.3   266     6.3   848.4    0.00 
 124    2:00   0.00   43.7    81    4.1   284     4.9   848.4    0.00 
 124    2:10   0.00   43.8    80    3.6   280     4.8   848.3    0.00 
 124    2:20   0.00   43.9    79    1.4   156     3.7   848.2    0.00 
 124    2:30   0.00   44.5    79    1.2   146     3.6   848.3    0.00 
 124    2:40   0.00   43.7    82    0.2    26     1.4   848.1    0.00 
 124    2:50   0.00   42.3    86    3.0    70     5.2   848.2    0.00 
 124    3:00   0.00   42.4    86    4.3    74     6.6   848.2    0.00 
 124    3:10   0.00   43.0    84    3.0    98     4.8   848.2    0.00 
 124    3:20   0.00   43.4    80    2.9   112     4.5   848.1    0.00 
 124    3:30   0.00   43.3    81    2.2   275     4.3   848.2    0.00 
 124    3:40   0.00   41.7    88    3.1   315     5.7   848.2    0.00 
 124    3:50   0.00   42.0    86    3.3   351     4.3   848.1    0.00 
 124    4:00   0.00   41.9    85    3.7     2     4.9   848.0    0.00 
 124    4:10   0.00   42.3    83    1.6   353     2.4   848.1    0.00 
 124    4:20   0.00   42.5    83    2.5   334     3.3   848.1    0.00 
 124    4:30   0.00   42.6    82    2.4   309     4.4   848.1    0.00 
 124    4:40   0.00   41.7    87    2.6   282     3.8   848.2    0.00 
 124    4:50   0.00   42.3    83    2.1   288     2.8   848.1    0.00 
 124    5:00   0.00   43.0    84    3.3   269     4.1   848.2    0.00 
 124    5:10   0.00   43.7    79    3.2   265     4.5   848.1    0.00 
 124    5:20   0.01   44.2    78    2.1   280     3.1   848.1    0.00 
 124    5:30   0.01   44.7    76    0.8    11     2.8   848.2    0.00 
 124    5:40   0.02   44.3    83    1.5    92     2.7   848.3    0.00 
 124    5:50   0.02   44.0    82    4.1   101     7.0   848.4    0.00 
 124    6:00   0.03   44.5    80    2.1   101     3.5   848.4    0.00 
 124    6:10   0.07   44.9    83    0.8   194     1.6   848.4    0.00 
 124    6:20   0.13   45.6    84    1.6   105     3.3   848.5    0.00 
 124    6:30   0.13   46.6    82    1.6   114     3.0   848.5    0.00 
 124    6:40   0.11   47.2    80    1.9    57     3.9   848.4    0.00 
 124    6:50   0.09   47.4    79    1.0    89     1.6   848.3    0.00 
 124    7:00   0.20   47.8    79    1.8   219     3.0   848.3    0.00 
 124    7:10   0.22   48.5    75    3.3   198     6.4   848.2    0.00 
 124    7:20   0.17   48.3    80    3.3   178     5.5   848.1    0.00 
 124    7:30   0.16   48.8    76    3.6   147     4.9   848.1    0.00 
 124    7:40   0.18   49.7    72    3.4   150     4.9   847.9    0.00 
 124    7:50   0.18   50.6    69    1.4   311     4.2   847.9    0.00 
 124    8:00   0.22   50.8    68    4.1   346     6.4   848.1    0.00 
 124    8:10   0.23   51.0    69    5.3   338     7.1   848.0    0.00 
 124    8:20   0.18   51.4    65    4.1   336     5.9   848.0    0.00 
 124    8:30   0.14   51.9    61    3.2     2     4.4   848.1    0.00 
 124    8:40   0.14   52.1    63    5.7   348     9.8   848.2    0.00 
 124    8:50   0.25   51.8    64    5.2   356     6.8   848.0    0.00 
 124    9:00   0.55   53.3    62    5.6   318     9.4   847.9    0.00 
 124    9:10   0.73   54.4    59    4.7   322     7.6   847.8    0.00 
 124    9:20   0.99   57.2    52    5.5   322     9.1   847.7    0.00 
 124    9:30   0.78   58.4    50    5.5   333     8.5   847.7    0.00 
 124    9:40   0.48   58.1    48    5.1   338     7.8   847.6    0.00 
 124    9:50   0.40   57.7    49    5.0   336     8.3   847.6    0.00 
 124   10:00   0.38   58.1    47    4.9   329     7.7   847.6    0.00 
 124   10:10   0.34   58.2    46    6.3   352    10.0   847.6    0.00 
 124   10:20   0.30   58.6    45    7.6    17    11.5   847.7    0.00 
 124   10:30   0.22   58.3    46    8.4   351    14.7   847.8    0.00 
 124   10:40   0.37   56.8    53   14.3    12    20.4   847.9    0.00 
 124   10:50   0.52   56.2    56   14.9     4    21.5   848.0    0.00 
 124   11:00   0.92   57.4    53   14.5   354    22.4   847.9    0.00 
 124   11:10   0.59   57.9    50   14.6   354    21.0   847.9    0.00 
 124   11:20   0.50   57.3    50   14.1   346    20.4   847.8    0.00 
 124   11:30   0.44   56.9    51   12.5   347    18.0   847.7    0.00 
 124   11:40   0.52   57.0    51   12.5   356    17.2   847.7    0.00 
 124   11:50   0.59   57.4    48   12.1     1    18.1   847.7    0.00 
 124   12:00   0.84   58.3    44   11.8   358    17.6   847.7    0.00 
 124   12:10   0.95   59.2    42   10.7   347    14.5   847.7    0.00 
 124   12:20   1.48   60.3    38    8.9   345    12.8   847.6    0.00 
 124   12:30   1.35   60.8    38    6.7   328    11.3   847.5    0.00 
 124   12:40   0.96   62.0    38    6.5   296    11.2   847.4    0.00 
 124   12:50   0.51   60.9    40    5.1   315    10.8   847.4    0.00 
 124   13:00   0.75   60.4    41    7.0   324    14.4   847.2    0.00 
 124   13:10   0.93   61.5    39    6.8   347    12.5   847.1    0.00 
 124   13:20   1.00   62.4    38    5.6   337    11.3   847.1    0.00 
 124   13:30   0.45   61.9    38    6.5    32    11.3   846.9    0.00 
 124   13:40   0.40   61.2    42   12.9   288    22.8   846.8    0.00 
 124   13:50   0.28   60.6    44   17.5   275    23.7   846.7    0.00 
 124   14:00   0.42   59.4    46   17.8   274    25.5   846.7    0.00 
 124   14:10   0.35   59.2    46   16.7   279    23.1   846.6    0.00 
 124   14:20   0.12   58.4    46   13.2   276    20.3   846.5    0.00 
 124   14:30   0.05   57.1    55    8.5   270    13.6   846.6    0.01 
 124   14:40   0.03   55.7    62    8.1   194    16.8   846.8    0.00 
 124   14:50   0.06   51.9    71   11.5   167    19.5   847.1    0.00 
 124   15:00   0.07   51.3    71   11.4   173    17.3   847.2    0.00 
 124   15:10   0.04   51.7    70    9.2   169    15.4   847.4    0.00 
 124   15:20   0.06   49.1    78   19.5   124    29.9   847.9    0.01 
 124   15:30   0.20   47.8    83   14.1   140    22.8   848.1    0.01 
 124   15:40   0.24   48.6    83   12.8   163    18.5   848.2    0.00 
 124   15:50   0.26   48.0    87   13.2   173    19.2   848.4    0.00 
 124   16:00   0.28   47.7    87   13.6   179    21.1   848.3    0.00 
 124   16:10   0.20   47.3    88   12.9   178    18.9   848.3    0.00 
 124   16:20   0.24   47.8    86   11.4   162    15.5   848.0    0.00 
 124   16:30   0.20   48.5    82   11.2   159    17.4   848.0    0.00 
 124   16:40   0.23   49.5    79   10.9   169    18.4   847.9    0.00 
 124   16:50   0.15   50.2    72   11.2   175    18.3   847.8    0.00 
 124   17:00   0.08   50.3    72    7.1   162    13.8   847.8    0.00 
 124   17:10   0.05   50.4    72    5.0   146     9.4   847.7    0.00 
 124   17:20   0.06   50.7    71    2.9   144     4.4   847.7    0.00 
 124   17:30   0.10   51.1    72    5.1   182     9.2   847.6    0.00 
 124   17:40   0.08   51.2    72    5.4   203     9.2   847.5    0.00 
 124   17:50   0.05   50.8    75    2.8   294     5.6   847.3    0.00 
 124   18:00   0.03   50.4    73    5.3   173    11.4   847.0    0.00 
 124   18:10   0.01   49.7    75    5.8   162     9.4   847.0    0.00 
 124   18:20   0.01   49.5    76    4.7   164     6.8   847.0    0.00 
 124   18:30   0.02   49.6    76    3.8   169     5.6   846.9    0.00 
 124   18:40   0.01   49.8    77    3.7   150     4.8   846.8    0.00 
 124   18:50   0.00   49.7    78    1.2   166     3.9   847.0    0.00 
 124   19:00   0.00   49.6    80    2.5    41     4.6   847.3    0.00 
 124   19:10   0.00   49.4    78    3.7    42     5.4   847.4    0.00 
 124   19:20   0.00   48.8    81    3.4    47     5.1   847.5    0.00 
 124   19:30   0.00   48.5    82    3.5    58     5.8   847.7    0.00 
 124   19:40   0.00   48.6    81    1.9   108     4.0   847.8    0.00 
 124   19:50   0.00   48.3    85    4.5   117     6.6   847.9    0.00 
 124   20:00   0.00   47.8    86    5.1   140     7.9   848.0    0.00 
 124   20:10   0.00   47.6    85    5.6   134     8.3   848.0    0.01 
 124   20:20   0.00   47.5    88    4.7   128     6.6   848.2    0.00 
 124   20:30   0.00   47.3    90    3.4   111     5.3   848.4    0.00 
 124   20:40   0.00   47.2    91    2.0   122     4.1   848.6    0.01 
 124   20:50   0.00   47.1    92    0.9   221     2.2   848.6    0.01 
 124   21:00   0.00   47.0    94    2.4   252     3.4   848.5    0.02 
 124   21:10   0.00   46.8    95    2.7   263     3.9   848.2    0.00 
 124   21:20   0.00   46.7    94    1.9   218     2.9   848.1    0.00 
 124   21:30   0.00   46.2    94    2.2   160     3.5   848.0    0.00 
 124   21:40   0.00   46.2    93    3.2   146     4.8   848.0    0.00 
 124   21:50   0.00   46.3    88    4.1   152     6.7   848.0    0.00 
 124   22:00   0.00   46.2    82    4.9   169     8.9   848.0    0.00 
 124   22:10   0.00   46.1    82    5.1   169     8.4   847.9    0.00 
 124   22:20   0.00   46.0    85    3.5   169     5.5   848.0    0.00 
 124   22:30   0.00   46.0    85    3.9   181     6.4   848.1    0.00 
 124   22:40   0.00   46.0    88    4.2   203     5.9   848.1    0.00 
 124   22:50   0.00   46.2    86    3.5   238     5.0   848.0    0.00 
 124   23:00   0.00   46.5    88    1.8   290     3.0   848.0    0.00 
 124   23:10   0.00   46.3    90    2.5    38     3.9   848.2    0.00 
 124   23:20   0.00   46.2    88    3.4    25     5.2   848.4    0.00 
 124   23:30   0.00   46.2    88    2.7    61     4.6   848.6    0.00 
 124   23:40   0.00   46.4    88    1.1   339     2.9   848.5    0.00 
 124   23:50   0.00   46.2    89    1.6   233     3.6   848.6    0.00 
 125    0:00   0.00   46.0    90    2.0   258     3.8   848.4    0.00 
 125    0:10   0.00   46.0    90    1.1   286     2.1   848.4    0.00 
 125    0:20   0.00   46.0    90    1.8   241     3.8   848.3    0.00 
 125    0:30   0.00   45.9    92    1.0   236     2.5   848.4    0.00 
 125    0:40   0.00   46.0    92    0.8   211     1.8   848.4    0.00 
 125    0:50   0.00   46.1    90    0.8     0     2.3   848.4    0.00 
 125    1:00   0.00   46.2    88    1.3   264     2.8   848.3    0.00 
 125    1:10   0.00   46.1    89    2.3   264     2.9   848.2    0.00 
 125    1:20   0.00   45.9    91    2.2   229     3.5   848.1    0.00 
 125    1:30   0.00   45.9    91    2.6   274     5.8   848.1    0.00 
 125    1:40   0.00   45.7    92    4.4   301     6.7   848.0    0.00 

Return to Smith Valley graphs page.


Western Regional Climate Center,wrcc@dri.edu